createdAt,value
2022-09-26T00:05:25.730Z,78.79
2022-09-26T00:08:24.472Z,76.10
2022-09-26T00:11:29.682Z,77.45
2022-09-26T00:17:33.146Z,88.06
2022-09-26T00:20:37.195Z,87.48
2022-09-26T00:23:28.065Z,85.20
2022-09-26T00:29:28.530Z,86.16
2022-09-26T00:36:07.845Z,87.94
2022-09-26T00:39:08.714Z,87.95
2022-09-26T00:42:18.348Z,87.44
2022-09-26T00:45:37.696Z,87.83
2022-09-26T00:52:19.890Z,87.26
2022-09-26T00:55:28.947Z,89.29
2022-09-26T01:05:02.772Z,86.12
2022-09-26T01:08:16.269Z,86.69
2022-09-26T01:11:19.693Z,87.95
2022-09-26T01:14:31.879Z,88.47
2022-09-26T01:24:21.622Z,89.20
2022-09-26T01:27:32.749Z,89.48
2022-09-26T01:30:31.324Z,89.43
2022-09-26T02:23:18.601Z,87.62
2022-09-26T02:26:34.843Z,89.08
2022-09-26T02:29:31.715Z,89.69
2022-09-26T02:32:33.230Z,84.05
2022-09-26T02:35:42.668Z,82.99
2022-09-26T02:38:46.144Z,88.01
2022-09-26T02:41:48.187Z,87.97
2022-09-26T06:14:12.566Z,87.45
2022-09-26T06:16:46.844Z,87.76
2022-09-26T06:19:54.972Z,88.17
2022-09-26T06:23:09.432Z,87.22
2022-09-26T06:26:25.221Z,86.66
2022-09-26T06:29:17.011Z,86.41
2022-09-26T06:32:39.790Z,86.41
2022-09-26T06:35:32.423Z,86.52
2022-09-26T06:38:19.345Z,86.56
2022-09-26T06:41:09.000Z,85.50
2022-09-26T06:44:14.394Z,85.61
2022-09-26T06:47:05.960Z,85.68
2022-09-26T06:50:04.750Z,85.15
2022-09-26T07:06:24.839Z,86.24
2022-09-26T07:13:31.240Z,85.62
2022-09-26T07:30:00.650Z,83.37
2022-09-26T07:32:31.076Z,83.97
2022-09-26T07:35:03.631Z,84.40
2022-09-26T07:37:35.429Z,82.56
2022-09-26T07:40:06.435Z,81.75
2022-09-26T07:42:37.450Z,82.22
2022-09-26T08:04:32.859Z,80.02
2022-09-26T08:07:01.931Z,78.09
2022-09-26T08:09:28.804Z,78.15
2022-09-26T08:11:56.868Z,75.80
2022-09-26T08:14:23.517Z,78.38
2022-09-26T08:16:55.538Z,76.63
2022-09-26T08:19:23.129Z,78.05
2022-09-26T08:21:50.028Z,78.00
2022-09-26T08:24:17.933Z,76.93
2022-09-26T08:26:44.999Z,75.50
2022-09-26T08:29:12.728Z,75.32
2022-09-26T08:31:41.375Z,71.85
2022-09-26T08:34:10.011Z,73.16
2022-09-26T08:36:39.636Z,71.03
2022-09-26T08:39:06.758Z,72.25
2022-09-26T08:42:03.612Z,71.15
2022-09-26T08:45:27.916Z,73.75
2022-09-26T08:48:29.314Z,74.80
2022-09-26T08:51:32.109Z,71.41
2022-09-26T08:54:15.875Z,69.75
2022-09-26T08:57:16.326Z,71.39
2022-09-26T08:59:46.075Z,69.92
2022-09-26T09:02:46.914Z,71.06
2022-09-26T09:05:39.440Z,68.86
2022-09-26T09:08:21.060Z,68.28
2022-09-26T09:11:18.967Z,70.72
2022-09-26T09:14:06.630Z,67.47
2022-09-26T09:52:00.498Z,67.71
2022-09-26T09:54:31.254Z,68.51
2022-09-26T09:57:19.913Z,68.89
2022-09-26T10:00:27.061Z,70.54
2022-09-26T10:03:27.413Z,72.80
2022-09-26T10:06:03.825Z,64.72
2022-09-26T11:30:22.743Z,60.26
2022-09-26T11:56:43.351Z,53.97
2022-09-26T12:00:11.119Z,47.43
2022-09-26T12:03:30.281Z,46.69
2022-09-26T12:06:38.716Z,50.76
2022-09-26T12:09:43.213Z,51.31
2022-09-26T12:13:12.605Z,57.19
2022-09-26T12:16:12.491Z,51.70
2022-09-26T12:19:06.530Z,48.90
2022-09-26T12:22:35.886Z,55.87
2022-09-26T12:25:48.385Z,53.51
2022-09-26T12:29:02.686Z,51.04
2022-09-26T12:32:31.688Z,51.61
2022-09-26T12:35:34.358Z,50.88
2022-09-26T13:18:01.473Z,63.12
2022-09-26T13:20:43.914Z,64.56
2022-09-26T13:23:53.860Z,64.61
2022-09-26T13:26:52.002Z,65.38
2022-09-26T13:29:40.839Z,67.29
2022-09-26T13:32:25.558Z,65.95
2022-09-26T13:35:05.609Z,67.59
2022-09-26T13:38:03.984Z,67.10
2022-09-26T13:41:14.871Z,68.64
2022-09-26T13:43:50.391Z,68.31
2022-09-26T13:46:42.185Z,68.91
2022-09-26T13:49:36.866Z,67.43
2022-09-26T13:52:28.377Z,67.95
2022-09-26T13:55:00.684Z,70.39
2022-09-26T13:58:21.368Z,68.12
2022-09-26T14:00:54.991Z,67.46
2022-09-26T14:03:47.551Z,68.53
2022-09-26T14:06:28.733Z,69.28
2022-09-26T14:09:27.878Z,68.80
2022-09-26T14:12:23.806Z,70.97
2022-09-26T14:15:17.115Z,70.16
2022-09-26T14:17:52.511Z,68.56
2022-09-26T14:20:29.989Z,70.72
2022-09-26T14:47:05.932Z,66.05
2022-09-26T14:49:34.696Z,67.45
2022-09-26T14:52:14.859Z,64.29
2022-09-26T14:54:55.028Z,66.44
2022-09-26T14:57:34.195Z,65.25
2022-09-26T15:00:45.721Z,64.74
2022-09-26T15:03:27.896Z,65.06
2022-09-26T15:06:09.038Z,64.83
2022-09-26T15:08:40.175Z,62.19
2022-09-26T15:11:51.273Z,62.43
2022-09-26T15:14:44.717Z,61.87
2022-09-26T15:17:33.883Z,61.86
2022-09-26T15:20:32.144Z,62.48
2022-09-26T15:23:41.779Z,62.48
2022-09-26T15:26:19.074Z,62.72
2022-09-26T15:29:09.108Z,62.24
2022-09-26T15:31:57.363Z,62.30
2022-09-26T15:34:40.052Z,61.61
2022-09-26T15:37:39.664Z,62.50
2022-09-26T15:40:27.277Z,62.68
2022-09-26T15:43:20.870Z,62.34
2022-09-26T15:45:51.206Z,62.89
2022-09-26T15:48:25.267Z,62.48
2022-09-26T15:51:00.946Z,63.12
2022-09-26T15:53:53.562Z,64.23
2022-09-26T15:56:26.364Z,64.38
2022-09-26T15:59:16.890Z,64.92
2022-09-26T16:01:49.375Z,65.31
2022-09-26T16:04:34.998Z,66.18
2022-09-26T16:07:25.911Z,66.50
2022-09-26T16:09:58.928Z,66.89
2022-09-26T16:12:34.743Z,67.08
2022-09-26T16:15:19.402Z,66.94
2022-09-26T16:17:53.447Z,67.80
2022-09-26T16:20:21.152Z,68.02
2022-09-26T16:23:28.274Z,67.87
2022-09-26T16:25:57.596Z,68.48
2022-09-26T16:28:44.947Z,68.11
2022-09-26T16:31:24.701Z,68.63
2022-09-26T16:33:53.983Z,69.39
2022-09-26T16:36:27.129Z,69.67
2022-09-26T16:39:08.990Z,69.49
2022-09-26T16:42:03.271Z,69.77
2022-09-26T16:44:38.454Z,69.70
2022-09-26T16:47:27.548Z,69.38
2022-09-26T16:49:59.885Z,70.33
2022-09-26T16:52:34.537Z,69.68
2022-09-26T16:55:06.356Z,70.41
2022-09-26T16:57:42.534Z,70.50
2022-09-26T17:00:38.300Z,71.12
2022-09-26T17:03:30.895Z,70.69
2022-09-26T17:06:02.978Z,70.94
2022-09-26T17:08:33.732Z,70.83
2022-09-26T17:11:03.205Z,71.21
2022-09-26T17:13:35.449Z,70.46
2022-09-26T17:16:11.764Z,70.92
2022-09-26T17:18:39.863Z,70.51
2022-09-26T17:21:13.143Z,71.78
2022-09-26T17:23:41.746Z,70.91
2022-09-26T17:26:21.782Z,71.86
2022-09-26T17:28:51.151Z,72.53
2022-09-26T17:31:20.452Z,71.16
2022-09-26T17:33:53.338Z,72.05
2022-09-26T17:36:24.166Z,72.10
2022-09-26T17:38:51.174Z,72.32
2022-09-26T17:41:19.296Z,73.20
2022-09-26T17:43:46.259Z,72.08
2022-09-26T17:46:16.114Z,72.24
2022-09-26T17:48:45.022Z,71.71
2022-09-26T17:51:15.218Z,72.96
2022-09-26T17:53:50.590Z,72.15
2022-09-26T17:56:19.358Z,72.89
2022-09-26T17:58:48.425Z,74.18
2022-09-26T18:01:33.021Z,73.98
2022-09-26T18:04:06.462Z,75.12
2022-09-26T18:06:36.549Z,75.46
2022-09-26T18:09:12.486Z,74.10
2022-09-26T18:11:51.493Z,74.87
2022-09-26T18:14:21.059Z,75.48
2022-09-26T18:16:49.584Z,75.24
2022-09-26T18:19:19.522Z,74.76
2022-09-26T18:21:54.660Z,75.99
2022-09-26T18:24:27.560Z,74.98
2022-09-26T18:27:04.070Z,74.83
2022-09-26T18:29:40.629Z,74.96
2022-09-26T18:32:24.225Z,73.19
2022-09-26T18:34:57.273Z,74.45
2022-09-26T18:37:30.720Z,73.83
2022-09-26T18:40:03.882Z,73.40
2022-09-26T18:42:36.184Z,74.18
2022-09-26T18:45:14.360Z,73.91
2022-09-26T18:47:47.191Z,74.67
2022-09-26T18:50:37.217Z,74.04
2022-09-26T18:53:24.941Z,74.99
2022-09-26T18:56:10.230Z,75.98
2022-09-26T18:58:40.702Z,75.74
2022-09-26T19:01:37.155Z,76.45
2022-09-26T19:04:14.567Z,76.10
2022-09-26T19:06:54.985Z,76.29
2022-09-26T19:09:35.469Z,76.04
2022-09-26T19:12:07.854Z,76.31
2022-09-26T19:14:38.380Z,76.47
2022-09-26T19:17:15.040Z,76.28
2022-09-26T19:19:48.385Z,75.69
2022-09-26T19:22:25.317Z,76.06
2022-09-26T19:25:02.099Z,75.51
2022-09-26T19:27:49.344Z,75.01
2022-09-26T19:35:45.722Z,75.29
2022-09-26T19:38:27.166Z,75.02
2022-09-26T19:40:58.353Z,75.45
2022-09-26T19:43:25.258Z,75.25
2022-09-26T19:45:59.045Z,75.53
2022-09-26T19:48:28.571Z,75.23
2022-09-26T19:51:04.085Z,75.18
2022-09-26T19:53:49.107Z,75.88
2022-09-26T19:56:22.173Z,74.07
2022-09-26T19:58:53.918Z,73.96
2022-09-26T20:01:37.842Z,74.20
2022-09-26T20:04:17.640Z,74.63
2022-09-26T20:06:53.538Z,74.52
2022-09-26T20:09:22.545Z,75.49
2022-09-26T20:11:58.922Z,75.53
2022-09-26T20:14:26.339Z,75.84
2022-09-26T20:16:58.597Z,75.58
2022-09-26T20:19:37.712Z,75.36
2022-09-26T20:22:15.133Z,76.13
2022-09-26T20:24:51.667Z,76.82
2022-09-26T20:27:25.409Z,76.44
2022-09-26T20:30:11.212Z,76.22
2022-09-26T20:32:38.624Z,76.20
2022-09-26T20:35:14.661Z,76.43
2022-09-26T20:37:51.401Z,76.70
2022-09-26T20:40:27.308Z,76.50
2022-09-26T20:43:20.961Z,77.16
2022-09-26T20:49:46.148Z,77.86
2022-09-26T20:52:55.281Z,78.09
2022-09-26T20:56:06.154Z,79.33
2022-09-26T21:06:18.803Z,80.21
2022-09-26T21:09:09.178Z,80.49
2022-09-26T21:15:46.393Z,79.96
2022-09-26T21:18:52.643Z,80.21
2022-09-26T21:22:07.196Z,80.75
2022-09-26T21:24:48.205Z,80.99
2022-09-26T21:31:30.956Z,81.31
2022-09-26T21:37:15.557Z,82.92
2022-09-26T21:39:50.454Z,82.46
2022-09-26T21:42:31.140Z,83.65
2022-09-26T21:45:27.936Z,82.92
2022-09-26T21:48:15.859Z,84.72
2022-09-26T21:51:11.393Z,84.43
2022-09-26T21:54:10.616Z,84.42
2022-09-26T21:57:15.691Z,83.93
2022-09-26T22:00:10.569Z,84.77
2022-09-26T22:02:46.306Z,85.22
2022-09-26T22:05:31.430Z,86.20
2022-09-26T22:07:59.852Z,85.25
2022-09-26T22:10:38.385Z,86.16
2022-09-26T22:13:25.770Z,86.79
2022-09-26T22:15:59.409Z,86.42
2022-09-26T22:18:43.817Z,86.48
2022-09-26T22:21:35.459Z,87.33
2022-09-26T22:24:23.037Z,88.05
2022-09-26T22:27:21.952Z,87.94
2022-09-26T22:30:11.044Z,87.54
2022-09-26T22:32:54.437Z,87.91
2022-09-26T22:35:53.044Z,87.82
2022-09-26T22:38:49.468Z,87.58
2022-09-26T22:41:25.957Z,88.28
2022-09-26T22:44:04.189Z,88.39
2022-09-26T22:46:45.443Z,89.38
2022-09-26T22:49:30.671Z,89.73
2022-09-26T22:52:26.157Z,89.58
2022-09-26T22:55:13.718Z,89.38
2022-09-26T22:58:09.839Z,89.36
2022-09-26T23:00:47.759Z,90.06
2022-09-26T23:03:28.573Z,90.19
2022-09-26T23:06:25.347Z,89.97
2022-09-26T23:09:01.165Z,90.51
2022-09-26T23:11:47.276Z,90.66
2022-09-26T23:14:26.634Z,91.04
2022-09-26T23:16:57.669Z,90.26
2022-09-26T23:19:29.307Z,89.78
2022-09-26T23:22:06.986Z,90.84
2022-09-26T23:24:57.157Z,89.86
2022-09-26T23:27:25.370Z,90.36
2022-09-26T23:29:55.437Z,90.43
2022-09-26T23:32:39.876Z,90.83
2022-09-26T23:35:33.114Z,91.02
2022-09-26T23:38:11.503Z,90.49
2022-09-26T23:40:47.834Z,90.97
2022-09-26T23:45:57.045Z,90.60
2022-09-26T23:48:43.745Z,90.78
2022-09-26T23:51:44.853Z,91.28
2022-09-26T23:54:22.944Z,90.76
2022-09-26T23:57:17.183Z,90.60
2022-09-26T23:59:59.840Z,90.52
